Time;durP1;ratioP1;P1;durP2;ratioP2;P2;SDS_P1;SDS_P2;PMS_P1;PMS_P2;Temp;Humidity;BMP_temperature;BMP_pressure;BME280_temperature;BME280_humidity;BME280_pressure;Samples;Min_cycle;Max_cycle;Signal;HPM_P1;HPM_P2
2021/01/07 00:00:41;;;;;;;;;14.33;11.67;;;;;;;;5060598;28;8849;-74
2021/01/07 00:03:07;;;;;;;;;11.00;10.00;;;;;;;;5060748;28;9639;-74
2021/01/07 00:05:33;;;;;;;;;11.00;11.00;;;;;;;;5059311;28;8861;-74
2021/01/07 00:07:59;;;;;;;;;10.33;10.00;;;;;;;;5058115;28;8845;-74
2021/01/07 00:10:25;;;;;;;;;14.00;12.50;;;;;;;;5062021;28;8847;-74
2021/01/07 00:12:52;;;;;;;;;10.67;9.67;;;;;;;;5058756;28;8833;-74
2021/01/07 00:15:18;;;;;;;;;12.33;11.67;;;;;;;;5061688;28;8985;-74
2021/01/07 00:17:46;;;;;;;;;11.00;10.00;;;;;;;;5059354;28;8854;-73
2021/01/07 00:20:12;;;;;;;;;7.67;7.33;;;;;;;;5060146;28;9542;-75
2021/01/07 00:22:38;;;;;;;;;6.00;6.00;;;;;;;;5060262;28;9059;-75
2021/01/07 00:25:05;;;;;;;;;8.33;6.33;;;;;;;;5059714;28;8968;-75
2021/01/07 00:27:31;;;;;;;;;13.00;9.00;;;;;;;;5061162;28;8834;-73
2021/01/07 00:29:58;;;;;;;;;10.00;9.00;;;;;;;;5058620;28;8940;-73
2021/01/07 00:32:27;;;;;;;;;13.00;10.33;;;;;;;;5061904;28;9601;-74
2021/01/07 00:34:53;;;;;;;;;11.33;10.33;;;;;;;;5054676;28;8829;-73
2021/01/07 00:37:19;;;;;;;;;27.67;22.00;;;;;;;;5061418;28;8835;-73
2021/01/07 00:39:45;;;;;;;;;32.00;29.00;;;;;;;;5059012;28;9013;-73
2021/01/07 00:42:11;;;;;;;;;37.67;34.00;;;;;;;;5060420;28;8837;-74
2021/01/07 00:44:37;;;;;;;;;40.00;35.33;;;;;;;;5060168;28;8846;-74
2021/01/07 00:47:04;;;;;;;;;46.75;42.00;;;;;;;;5059002;28;8850;-75
2021/01/07 00:49:30;;;;;;;;;51.00;42.75;;;;;;;;5060819;28;8827;-74
2021/01/07 00:51:56;;;;;;;;;58.25;46.25;;;;;;;;5058134;28;8872;-73
2021/01/07 00:54:22;;;;;;;;;61.75;49.75;;;;;;;;5053994;28;8860;-74
2021/01/07 00:56:48;;;;;;;;;58.25;47.50;;;;;;;;5061571;28;8839;-73
2021/01/07 00:59:14;;;;;;;;;59.75;47.50;;;;;;;;5058850;28;8843;-73
2021/01/07 01:01:44;;;;;;;;;60.00;49.75;;;;;;;;5059850;28;8859;-74
2021/01/07 01:04:11;;;;;;;;;62.25;46.50;;;;;;;;5059185;28;8857;-73
2021/01/07 01:06:37;;;;;;;;;55.25;44.00;;;;;;;;5059204;28;8946;-74
2021/01/07 01:09:04;;;;;;;;;57.00;46.50;;;;;;;;5060635;28;8839;-74
2021/01/07 01:11:30;;;;;;;;;64.25;47.75;;;;;;;;5059243;28;8869;-73
2021/01/07 01:13:55;;;;;;;;;54.75;45.75;;;;;;;;5058103;28;8925;-73
2021/01/07 01:16:26;;;;;;;;;56.75;44.00;;;;;;;;5058419;28;8956;-74
2021/01/07 01:18:52;;;;;;;;;39.25;35.75;;;;;;;;5059267;28;8960;-73
2021/01/07 01:21:19;;;;;;;;;41.75;36.75;;;;;;;;5060113;28;8986;-73
2021/01/07 01:23:44;;;;;;;;;41.00;36.75;;;;;;;;5058386;28;8854;-74
2021/01/07 01:26:10;;;;;;;;;48.75;38.75;;;;;;;;5057617;28;8842;-72
2021/01/07 01:28:36;;;;;;;;;44.00;39.75;;;;;;;;5058947;28;8861;-73
2021/01/07 01:31:02;;;;;;;;;42.25;40.50;;;;;;;;5061979;28;8835;-72
2021/01/07 01:33:28;;;;;;;;;36.50;34.00;;;;;;;;5063996;28;8845;-73
2021/01/07 01:35:55;;;;;;;;;39.25;33.25;;;;;;;;5063900;28;9566;-72
2021/01/07 01:38:22;;;;;;;;;38.67;34.00;;;;;;;;5059476;28;8968;-72
2021/01/07 01:40:48;;;;;;;;;33.67;28.33;;;;;;;;5064155;28;8850;-73
2021/01/07 01:43:14;;;;;;;;;33.33;29.67;;;;;;;;5060929;28;8857;-72
2021/01/07 01:45:40;;;;;;;;;36.00;33.00;;;;;;;;5062333;28;8861;-73
2021/01/07 01:48:06;;;;;;;;;32.67;29.67;;;;;;;;5061032;28;8865;-73
2021/01/07 01:50:31;;;;;;;;;28.00;27.33;;;;;;;;5062083;28;8853;-74
2021/01/07 01:52:57;;;;;;;;;31.67;27.67;;;;;;;;5064020;28;8841;-73
2021/01/07 01:55:24;;;;;;;;;34.67;32.00;;;;;;;;5063699;28;8859;-73
2021/01/07 01:57:50;;;;;;;;;33.67;27.67;;;;;;;;5061831;28;8960;-73
2021/01/07 02:00:17;;;;;;;;;33.33;31.67;;;;;;;;5062045;28;8854;-73
2021/01/07 02:02:42;;;;;;;;;28.67;28.33;;;;;;;;5061575;28;8922;-72
2021/01/07 02:05:09;;;;;;;;;35.67;31.00;;;;;;;;5062917;28;8841;-73
2021/01/07 02:07:38;;;;;;;;;35.00;28.67;;;;;;;;5062814;28;8969;-75
2021/01/07 02:10:04;;;;;;;;;37.00;31.50;;;;;;;;5062030;28;8848;-73
2021/01/07 02:12:31;;;;;;;;;40.00;38.50;;;;;;;;5063528;28;8954;-74
2021/01/07 02:14:57;;;;;;;;;41.50;34.00;;;;;;;;5061228;28;8914;-73
2021/01/07 02:17:23;;;;;;;;;24.00;20.50;;;;;;;;5064351;28;8843;-75
2021/01/07 02:19:49;;;;;;;;;31.00;27.33;;;;;;;;5060969;28;8838;-74
2021/01/07 02:22:15;;;;;;;;;34.00;30.67;;;;;;;;5063504;28;8973;-73
2021/01/07 02:24:41;;;;;;;;;32.00;29.00;;;;;;;;5061709;28;8991;-72
2021/01/07 02:27:10;;;;;;;;;34.25;30.50;;;;;;;;5062874;28;8845;-73
2021/01/07 02:29:36;;;;;;;;;33.00;28.33;;;;;;;;5062080;28;8835;-73
2021/01/07 02:32:02;;;;;;;;;29.67;29.67;;;;;;;;5061811;28;8960;-73
2021/01/07 02:34:28;;;;;;;;;33.00;28.75;;;;;;;;5063245;28;8835;-71
2021/01/07 02:36:54;;;;;;;;;27.00;23.25;;;;;;;;5060631;28;8974;-72
2021/01/07 02:39:21;;;;;;;;;32.25;29.50;;;;;;;;5056298;28;8856;-73
2021/01/07 02:41:50;;;;;;;;;38.00;32.75;;;;;;;;5063107;28;8876;-73
2021/01/07 02:44:16;;;;;;;;;35.50;32.00;;;;;;;;5060849;28;8838;-73
2021/01/07 02:46:42;;;;;;;;;32.75;29.50;;;;;;;;5062666;28;8865;-74
2021/01/07 02:49:08;;;;;;;;;29.75;26.50;;;;;;;;5062113;28;8846;-73
2021/01/07 02:51:34;;;;;;;;;22.00;20.00;;;;;;;;5061073;28;8849;-72
2021/01/07 02:54:02;;;;;;;;;33.50;30.00;;;;;;;;5063000;28;8846;-72
2021/01/07 02:56:29;;;;;;;;;26.50;24.00;;;;;;;;5060349;28;9569;-72
2021/01/07 02:58:55;;;;;;;;;37.75;26.50;;;;;;;;5064010;28;8831;-74
2021/01/07 03:01:22;;;;;;;;;24.50;22.00;;;;;;;;5060318;28;8850;-74
2021/01/07 03:03:48;;;;;;;;;28.00;24.25;;;;;;;;5063588;28;8923;-73
2021/01/07 03:06:14;;;;;;;;;34.50;28.75;;;;;;;;5060696;28;8835;-73
2021/01/07 03:08:39;;;;;;;;;32.75;26.25;;;;;;;;5061865;28;8968;-73
2021/01/07 03:11:05;;;;;;;;;36.00;30.75;;;;;;;;5061940;28;8880;-73
2021/01/07 03:13:32;;;;;;;;;36.50;27.50;;;;;;;;5060866;28;8841;-73
2021/01/07 03:15:58;;;;;;;;;35.50;32.00;;;;;;;;5063090;28;8949;-73
2021/01/07 03:18:24;;;;;;;;;27.50;24.75;;;;;;;;5059685;28;9576;-73
2021/01/07 03:20:50;;;;;;;;;32.75;30.00;;;;;;;;5055928;28;8833;-73
2021/01/07 03:23:16;;;;;;;;;29.50;25.75;;;;;;;;5062654;28;8878;-72
2021/01/07 03:25:42;;;;;;;;;31.00;22.75;;;;;;;;5060538;28;8870;-72
2021/01/07 03:28:08;;;;;;;;;25.75;24.00;;;;;;;;5061421;28;8976;-73
2021/01/07 03:30:34;;;;;;;;;32.50;26.75;;;;;;;;5061805;28;8981;-73
2021/01/07 03:33:00;;;;;;;;;34.00;24.75;;;;;;;;5060263;28;9008;-75
2021/01/07 03:35:26;;;;;;;;;26.25;24.25;;;;;;;;5062534;28;8838;-75
2021/01/07 03:37:52;;;;;;;;;33.50;26.75;;;;;;;;5059531;28;8871;-74
2021/01/07 03:40:18;;;;;;;;;33.25;29.00;;;;;;;;5062658;28;8835;-74
2021/01/07 03:42:44;;;;;;;;;25.75;24.50;;;;;;;;5059604;28;8888;-73
2021/01/07 03:45:10;;;;;;;;;28.25;24.50;;;;;;;;5061609;28;8879;-73
2021/01/07 03:47:37;;;;;;;;;27.25;24.75;;;;;;;;5060750;28;8958;-74
2021/01/07 03:50:03;;;;;;;;;32.00;25.25;;;;;;;;5060303;28;8848;-74
2021/01/07 03:52:29;;;;;;;;;34.50;27.50;;;;;;;;5061788;28;8885;-73
2021/01/07 03:54:55;;;;;;;;;32.00;26.67;;;;;;;;5058211;28;8980;-73
2021/01/07 03:57:21;;;;;;;;;35.25;26.75;;;;;;;;5062377;28;8842;-73
2021/01/07 03:59:47;;;;;;;;;29.33;27.33;;;;;;;;5059241;28;8919;-72
2021/01/07 04:02:13;;;;;;;;;32.00;25.25;;;;;;;;5061504;28;8952;-72
2021/01/07 04:04:40;;;;;;;;;39.75;30.50;;;;;;;;5059993;28;9108;-72
2021/01/07 04:07:06;;;;;;;;;31.75;28.00;;;;;;;;5060479;28;8948;-72
2021/01/07 04:09:32;;;;;;;;;26.25;23.75;;;;;;;;5060700;28;8966;-72
2021/01/07 04:11:57;;;;;;;;;36.00;29.75;;;;;;;;5059380;28;8838;-72
2021/01/07 04:14:23;;;;;;;;;28.50;23.75;;;;;;;;5062245;28;8843;-72
2021/01/07 04:16:49;;;;;;;;;34.50;28.00;;;;;;;;5054618;28;8829;-72
2021/01/07 04:19:15;;;;;;;;;32.75;27.75;;;;;;;;5061831;28;8819;-72
2021/01/07 04:21:45;;;;;;;;;44.00;31.75;;;;;;;;5059603;28;8835;-73
2021/01/07 04:24:12;;;;;;;;;29.67;24.33;;;;;;;;5058768;28;8842;-72
2021/01/07 04:26:39;;;;;;;;;34.33;26.67;;;;;;;;5060091;28;8963;-73
2021/01/07 04:29:04;;;;;;;;;35.25;31.25;;;;;;;;5060335;28;9002;-73
2021/01/07 04:31:30;;;;;;;;;34.75;27.00;;;;;;;;5058960;28;8857;-72
2021/01/07 04:33:56;;;;;;;;;37.25;31.75;;;;;;;;5061613;28;8819;-73
2021/01/07 04:36:22;;;;;;;;;35.50;34.00;;;;;;;;5058175;28;8854;-72
2021/01/07 04:38:49;;;;;;;;;35.25;30.00;;;;;;;;5061646;28;8854;-73
2021/01/07 04:41:15;;;;;;;;;35.25;31.25;;;;;;;;5058955;28;9583;-73
2021/01/07 04:43:41;;;;;;;;;27.00;25.00;;;;;;;;5060586;28;8834;-72
2021/01/07 04:46:07;;;;;;;;;43.75;33.50;;;;;;;;5059731;28;8842;-73
2021/01/07 04:48:34;;;;;;;;;35.25;27.25;;;;;;;;5059456;28;8838;-72
2021/01/07 04:51:00;;;;;;;;;38.00;31.50;;;;;;;;5060570;28;9025;-71
2021/01/07 04:53:26;;;;;;;;;31.50;27.00;;;;;;;;5058028;28;9554;-73
2021/01/07 04:55:53;;;;;;;;;37.50;30.00;;;;;;;;5061405;28;9102;-73
2021/01/07 04:58:19;;;;;;;;;38.75;31.25;;;;;;;;5053547;28;9014;-72
2021/01/07 05:00:47;;;;;;;;;38.50;29.50;;;;;;;;5060813;28;8815;-72
2021/01/07 05:03:19;;;;;;;;;36.50;29.50;;;;;;;;5058328;28;8881;-72
2021/01/07 05:05:46;;;;;;;;;40.00;31.50;;;;;;;;5060464;28;8932;-72
2021/01/07 05:08:16;;;;;;;;;23.00;15.25;;;;;;;;5058230;28;8865;-73
2021/01/07 05:10:43;;;;;;;;;36.25;30.25;;;;;;;;5059685;28;8838;-73
2021/01/07 05:13:10;;;;;;;;;40.00;32.50;;;;;;;;5058846;28;9016;-72
2021/01/07 05:15:38;;;;;;;;;35.00;31.25;;;;;;;;5059301;28;9002;-73
2021/01/07 05:18:04;;;;;;;;;35.00;32.75;;;;;;;;5059550;28;8843;-73
2021/01/07 05:20:30;;;;;;;;;36.50;29.25;;;;;;;;5058368;28;8891;-72
2021/01/07 05:22:58;;;;;;;;;21.50;12.25;;;;;;;;5060817;28;8839;-73
2021/01/07 05:25:24;;;;;;;;;27.25;21.50;;;;;;;;5057448;28;8948;-72
2021/01/07 05:27:50;;;;;;;;;33.00;28.75;;;;;;;;5060715;28;8941;-72
2021/01/07 05:30:18;;;;;;;;;28.00;22.25;;;;;;;;5057954;28;8984;-72
2021/01/07 05:32:44;;;;;;;;;35.25;32.00;;;;;;;;5060136;28;8901;-72
2021/01/07 05:35:11;;;;;;;;;36.75;28.50;;;;;;;;5058531;28;8996;-73
2021/01/07 05:37:38;;;;;;;;;31.75;26.00;;;;;;;;5059029;28;8822;-73
2021/01/07 05:40:05;;;;;;;;;28.75;24.50;;;;;;;;5059573;28;8957;-73
2021/01/07 05:42:36;;;;;;;;;35.00;28.75;;;;;;;;5058223;28;8833;-71
2021/01/07 05:45:04;;;;;;;;;33.00;23.25;;;;;;;;5058579;28;8855;-73
2021/01/07 05:47:30;;;;;;;;;29.00;26.50;;;;;;;;5059634;28;8977;-73
2021/01/07 05:49:57;;;;;;;;;33.50;31.00;;;;;;;;5057800;28;8948;-73
2021/01/07 05:52:27;;;;;;;;;34.00;29.50;;;;;;;;5060652;28;8838;-74
2021/01/07 05:54:54;;;;;;;;;30.50;29.00;;;;;;;;5053884;28;8972;-73
2021/01/07 05:57:21;;;;;;;;;25.25;23.75;;;;;;;;5060863;28;9000;-73
2021/01/07 05:59:48;;;;;;;;;33.00;28.75;;;;;;;;5057246;28;8960;-73
2021/01/07 06:02:16;;;;;;;;;26.00;23.00;;;;;;;;5059977;28;9570;-73
2021/01/07 06:04:44;;;;;;;;;26.00;24.75;;;;;;;;5057754;28;8850;-73
2021/01/07 06:07:11;;;;;;;;;28.00;23.00;;;;;;;;5059456;28;8883;-72
2021/01/07 06:09:37;;;;;;;;;29.00;25.25;;;;;;;;5058167;28;8929;-72
2021/01/07 06:12:03;;;;;;;;;32.75;26.25;;;;;;;;5058615;28;8984;-73
2021/01/07 06:14:29;;;;;;;;;33.50;28.50;;;;;;;;5059494;28;8827;-73
2021/01/07 06:16:55;;;;;;;;;34.75;32.00;;;;;;;;5058449;28;9546;-74
2021/01/07 06:19:31;;;;;;;;;32.50;29.50;;;;;;;;5064262;28;8899;-73
2021/01/07 06:21:59;;;;;;;;;33.00;31.25;;;;;;;;5058503;28;9561;-73
2021/01/07 06:24:25;;;;;;;;;24.25;22.50;;;;;;;;5063611;28;8831;-74
2021/01/07 06:26:52;;;;;;;;;33.25;27.75;;;;;;;;5060856;28;9677;-77
2021/01/07 06:29:18;;;;;;;;;23.00;19.00;;;;;;;;5064081;28;8831;-72
2021/01/07 06:31:44;;;;;;;;;36.50;30.50;;;;;;;;5061293;28;9015;-72
2021/01/07 06:34:12;;;;;;;;;36.50;30.00;;;;;;;;5059326;28;8877;-70
2021/01/07 06:36:39;;;;;;;;;43.50;36.00;;;;;;;;5054283;28;9820;-73
2021/01/07 06:39:07;;;;;;;;;37.75;33.75;;;;;;;;5058499;28;8984;-74
2021/01/07 06:41:33;;;;;;;;;32.75;29.00;;;;;;;;5059950;28;8908;-74
2021/01/07 06:43:59;;;;;;;;;34.75;30.75;;;;;;;;5059951;28;9007;-75
2021/01/07 06:46:37;;;;;;;;;38.00;30.50;;;;;;;;5061811;28;8969;-75
2021/01/07 06:49:16;;;;;;;;;35.50;32.75;;;;;;;;5060304;28;8954;-75
2021/01/07 06:51:46;;;;;;;;;37.00;29.00;;;;;;;;5058695;28;8942;-77
2021/01/07 06:54:13;;;;;;;;;31.00;28.75;;;;;;;;5061208;28;8953;-71
2021/01/07 06:56:41;;;;;;;;;32.50;28.00;;;;;;;;5059532;28;8973;-79
2021/01/07 06:59:08;;;;;;;;;35.75;28.00;;;;;;;;5060376;28;8849;-74
2021/01/07 07:01:34;;;;;;;;;31.00;28.00;;;;;;;;5057787;28;8972;-71
2021/01/07 07:04:03;;;;;;;;;40.00;28.25;;;;;;;;5060648;28;8882;-71
2021/01/07 07:06:29;;;;;;;;;35.25;26.75;;;;;;;;5058203;28;8853;-71
2021/01/07 07:08:55;;;;;;;;;41.00;25.75;;;;;;;;5061697;28;8974;-74
2021/01/07 07:11:41;;;;;;;;;51.25;34.75;;;;;;;;5057876;28;8968;-71
2021/01/07 07:14:09;;;;;;;;;28.00;24.25;;;;;;;;5056417;28;9716;-72
2021/01/07 12:45:11;;;;;;;;;32.33;27.33;;;;;;;;6191423;22;884825;-75
2021/01/07 12:47:37;;;;;;;;;24.00;22.00;;;;;;;;6220965;23;8833;-77
2021/01/07 12:50:04;;;;;;;;;35.00;27.33;;;;;;;;6220022;23;9649;-76
2021/01/07 12:52:30;;;;;;;;;28.00;26.33;;;;;;;;6216692;23;8928;-77
2021/01/07 12:54:57;;;;;;;;;34.00;28.00;;;;;;;;6219942;23;8968;-81
2021/01/07 12:57:26;;;;;;;;;28.67;25.00;;;;;;;;6219029;23;8984;-73
2021/01/07 12:59:59;;;;;;;;;28.67;25.33;;;;;;;;6218074;23;8810;-73
2021/01/07 13:02:31;;;;;;;;;25.00;24.00;;;;;;;;6219337;23;8904;-73
2021/01/07 13:05:02;;;;;;;;;26.00;19.67;;;;;;;;6218748;23;8999;-77
2021/01/07 13:07:29;;;;;;;;;31.67;28.00;;;;;;;;6218851;23;8797;-78
2021/01/07 13:09:56;;;;;;;;;30.33;25.33;;;;;;;;6219154;23;8818;-75
2021/01/07 13:12:23;;;;;;;;;31.33;27.67;;;;;;;;6218383;23;8810;-74
2021/01/07 13:14:49;;;;;;;;;26.67;25.00;;;;;;;;6218724;23;9336;-79
2021/01/07 13:17:15;;;;;;;;;28.67;26.33;;;;;;;;6219048;23;8926;-80
2021/01/07 13:19:42;;;;;;;;;29.33;27.00;;;;;;;;6217950;23;8830;-80
2021/01/07 13:22:10;;;;;;;;;31.33;26.00;;;;;;;;6217556;23;8920;-75
2021/01/07 13:24:36;;;;;;;;;31.67;26.33;;;;;;;;6216828;23;8829;-81
2021/01/07 13:27:02;;;;;;;;;28.33;25.33;;;;;;;;6217663;23;8833;-76
2021/01/07 13:29:29;;;;;;;;;30.33;27.67;;;;;;;;6218190;23;8841;-78
2021/01/07 13:31:55;;;;;;;;;23.67;21.67;;;;;;;;6218884;23;8859;-76
2021/01/07 13:34:21;;;;;;;;;24.33;21.00;;;;;;;;6218474;23;8935;-76
2021/01/07 13:37:41;;;;;;;;;20.00;18.33;;;;;;;;5073591;27;13445;-76
2021/01/07 13:40:08;;;;;;;;;11.00;11.00;;;;;;;;5065293;28;8863;-76
2021/01/07 13:42:34;;;;;;;;;9.33;5.33;;;;;;;;5064039;28;11835;-73
2021/01/07 13:45:00;;;;;;;;;7.00;6.67;;;;;;;;5066025;28;11668;-73
2021/01/07 13:47:27;;;;;;;;;6.33;6.33;;;;;;;;5064429;28;11611;-71
2021/01/07 13:49:55;;;;;;;;;6.00;5.00;;;;;;;;5065141;28;11571;-74
2021/01/07 13:52:22;;;;;;;;;5.67;5.67;;;;;;;;5064921;28;11639;-71
2021/01/07 13:54:50;;;;;;;;;6.67;6.00;;;;;;;;5052766;28;13132;-71
2021/01/07 13:57:16;;;;;;;;;5.67;5.67;;;;;;;;4922829;28;108485;-72
2021/01/07 13:59:43;;;;;;;;;3.00;2.33;;;;;;;;5072699;28;11635;-73
2021/01/07 14:02:09;;;;;;;;;5.00;5.00;;;;;;;;5074407;28;8851;-72
2021/01/07 14:04:36;;;;;;;;;5.00;4.33;;;;;;;;5032451;28;11492;-71
2021/01/07 14:07:04;;;;;;;;;7.67;5.00;;;;;;;;5053196;28;12469;-72
2021/01/07 14:09:33;;;;;;;;;7.33;3.00;;;;;;;;5054245;28;12244;-72
2021/01/07 14:12:01;;;;;;;;;6.00;6.00;;;;;;;;5056255;28;11648;-72
2021/01/07 14:14:27;;;;;;;;;5.33;5.00;;;;;;;;5054071;28;11665;-73
2021/01/07 14:16:53;;;;;;;;;5.67;3.00;;;;;;;;5055018;28;11525;-73
2021/01/07 14:19:19;;;;;;;;;7.00;4.33;;;;;;;;5052977;28;11549;-74
2021/01/07 14:21:45;;;;;;;;;5.33;3.67;;;;;;;;5054213;28;8965;-74
2021/01/07 14:24:14;;;;;;;;;5.75;5.25;;;;;;;;5054998;28;11635;-74
2021/01/07 14:26:47;;;;;;;;;9.33;3.67;;;;;;;;5054591;28;8841;-73
2021/01/07 14:29:18;;;;;;;;;7.00;5.00;;;;;;;;5053750;28;11507;-79
2021/01/07 14:31:44;;;;;;;;;8.00;5.00;;;;;;;;5057863;28;11627;-76
2021/01/07 14:34:10;;;;;;;;;3.00;3.00;;;;;;;;5053041;28;11688;-75
2021/01/07 14:36:39;;;;;;;;;9.33;9.33;;;;;;;;5058512;28;12053;-78
2021/01/07 14:39:05;;;;;;;;;7.67;7.67;;;;;;;;5058339;28;11542;-79
2021/01/07 14:41:31;;;;;;;;;9.67;9.00;;;;;;;;5055746;28;11541;-83
2021/01/07 14:43:57;;;;;;;;;11.33;11.33;;;;;;;;5056040;28;11705;-80
2021/01/07 14:46:24;;;;;;;;;12.67;6.67;;;;;;;;5055487;28;8861;-79
2021/01/07 14:48:56;;;;;;;;;11.00;11.00;;;;;;;;5042065;28;11565;-78
2021/01/07 14:51:23;;;;;;;;;11.00;9.67;;;;;;;;5042181;28;11537;-79
2021/01/07 14:53:51;;;;;;;;;8.00;6.00;;;;;;;;5046796;28;11548;-81
2021/01/07 14:56:20;;;;;;;;;12.00;11.33;;;;;;;;5044496;28;11488;-84
2021/01/07 14:58:53;;;;;;;;;12.67;10.33;;;;;;;;5038352;28;11550;-83
2021/01/07 15:01:22;;;;;;;;;14.33;11.67;;;;;;;;5041845;28;11679;-83
2021/01/07 15:03:55;;;;;;;;;14.33;11.33;;;;;;;;5041212;28;11716;-84
2021/01/07 15:06:22;;;;;;;;;11.00;9.67;;;;;;;;5036979;28;11775;-85
2021/01/07 15:08:51;;;;;;;;;15.00;11.67;;;;;;;;5043145;28;11534;-81
2021/01/07 15:11:20;;;;;;;;;11.33;11.33;;;;;;;;5041721;28;8957;-72
2021/01/07 15:13:47;;;;;;;;;10.00;8.00;;;;;;;;5039188;28;11803;-74
2021/01/07 15:16:15;;;;;;;;;11.00;11.00;;;;;;;;5041636;28;11542;-72
2021/01/07 15:18:46;;;;;;;;;12.00;10.00;;;;;;;;5039571;28;11644;-73
2021/01/07 15:21:14;;;;;;;;;13.33;11.67;;;;;;;;5043469;28;11572;-73
2021/01/07 15:24:00;;;;;;;;;15.67;11.33;;;;;;;;5043843;28;11729;-73
2021/01/07 15:26:27;;;;;;;;;11.33;10.67;;;;;;;;5044130;28;8963;-73
2021/01/07 15:28:59;;;;;;;;;11.33;9.67;;;;;;;;5044501;28;9635;-73
2021/01/07 15:31:29;;;;;;;;;13.00;10.33;;;;;;;;5042907;28;11528;-73
2021/01/07 15:33:56;;;;;;;;;14.00;11.67;;;;;;;;5042235;28;11681;-74
2021/01/07 15:36:37;;;;;;;;;14.00;9.33;;;;;;;;5041457;28;8868;-76
2021/01/07 15:39:18;;;;;;;;;14.67;11.67;;;;;;;;5039126;28;11548;-74
2021/01/07 15:41:59;;;;;;;;;15.00;14.00;;;;;;;;5037870;28;11681;-74
2021/01/07 15:44:56;;;;;;;;;14.33;12.00;;;;;;;;5039379;28;11743;-74
2021/01/07 15:47:46;;;;;;;;;16.67;12.33;;;;;;;;5039568;28;8909;-74
2021/01/07 15:50:17;;;;;;;;;14.00;11.67;;;;;;;;5039706;28;11763;-76
2021/01/07 15:53:02;;;;;;;;;18.33;14.67;;;;;;;;5038583;28;8852;-75
2021/01/07 15:55:39;;;;;;;;;16.67;12.00;;;;;;;;5041441;28;9057;-68
2021/01/07 15:58:15;;;;;;;;;11.00;10.00;;;;;;;;5042656;28;8844;-76
2021/01/07 16:00:43;;;;;;;;;14.00;10.00;;;;;;;;5037113;28;11681;-75
2021/01/07 16:03:14;;;;;;;;;14.00;11.33;;;;;;;;5038573;28;11688;-75
2021/01/07 16:05:44;;;;;;;;;15.67;13.33;;;;;;;;5037813;28;11696;-75
2021/01/07 16:08:17;;;;;;;;;8.33;5.00;;;;;;;;5038107;28;8994;-75
2021/01/07 16:10:45;;;;;;;;;15.33;14.00;;;;;;;;5037369;28;8891;-75
2021/01/07 16:13:12;;;;;;;;;18.67;16.00;;;;;;;;5042527;28;8841;-74
2021/01/07 16:15:39;;;;;;;;;16.00;15.00;;;;;;;;5040512;28;8852;-74
2021/01/07 16:18:05;;;;;;;;;16.67;14.00;;;;;;;;5037322;28;9593;-76
2021/01/07 16:20:31;;;;;;;;;15.33;14.00;;;;;;;;5037061;28;8891;-72
2021/01/07 16:23:01;;;;;;;;;14.33;11.00;;;;;;;;5038811;28;8860;-72
2021/01/07 16:25:33;;;;;;;;;14.00;12.00;;;;;;;;5037043;28;8837;-71
2021/01/07 16:28:08;;;;;;;;;15.33;11.00;;;;;;;;5040128;28;9642;-72
2021/01/07 16:30:34;;;;;;;;;10.33;10.00;;;;;;;;5037314;28;11672;-71
2021/01/07 16:33:00;;;;;;;;;10.00;10.00;;;;;;;;5043166;28;11615;-72
2021/01/07 16:35:26;;;;;;;;;14.00;12.00;;;;;;;;5047033;28;8876;-70
2021/01/07 16:37:52;;;;;;;;;16.00;14.00;;;;;;;;5044519;28;9733;-72
2021/01/07 16:40:19;;;;;;;;;16.67;12.00;;;;;;;;5043711;28;11666;-72
2021/01/07 16:42:45;;;;;;;;;15.67;12.00;;;;;;;;5039330;28;8941;-72
2021/01/07 16:45:12;;;;;;;;;12.00;11.00;;;;;;;;5037078;28;8846;-73
2021/01/07 16:47:38;;;;;;;;;11.00;11.00;;;;;;;;5039035;28;9688;-73
2021/01/07 16:50:05;;;;;;;;;16.00;12.00;;;;;;;;5037484;28;8857;-73
2021/01/07 16:52:32;;;;;;;;;15.00;12.00;;;;;;;;5040087;28;8968;-72
2021/01/07 16:54:59;;;;;;;;;16.67;14.00;;;;;;;;5042067;28;8869;-72
2021/01/07 16:57:25;;;;;;;;;15.00;14.67;;;;;;;;5041416;28;11577;-72
2021/01/07 16:59:51;;;;;;;;;15.33;15.00;;;;;;;;5041452;28;8871;-72
2021/01/07 17:02:18;;;;;;;;;21.67;19.33;;;;;;;;5041006;28;8850;-71
2021/01/07 17:04:44;;;;;;;;;20.33;17.33;;;;;;;;5038750;28;8846;-69
2021/01/07 17:07:10;;;;;;;;;15.33;15.33;;;;;;;;5035407;28;8865;-74
2021/01/07 17:09:36;;;;;;;;;17.33;15.67;;;;;;;;5034857;28;8858;-74
2021/01/07 17:12:04;;;;;;;;;18.67;16.33;;;;;;;;5036820;28;8854;-73
2021/01/07 17:14:31;;;;;;;;;20.33;19.33;;;;;;;;5037249;28;9622;-75
2021/01/07 17:16:57;;;;;;;;;23.67;18.00;;;;;;;;5035315;28;8879;-72
2021/01/07 17:19:23;;;;;;;;;21.33;20.00;;;;;;;;5034014;28;8978;-74
2021/01/07 17:21:53;;;;;;;;;21.00;19.33;;;;;;;;5036912;28;8987;-75
2021/01/07 17:24:19;;;;;;;;;16.00;16.00;;;;;;;;5035456;28;9013;-73
2021/01/07 17:26:45;;;;;;;;;22.00;19.67;;;;;;;;5037284;28;8858;-75
2021/01/07 17:29:10;;;;;;;;;27.33;21.00;;;;;;;;5035829;28;9762;-73
2021/01/07 17:31:36;;;;;;;;;22.33;16.67;;;;;;;;5032285;28;8975;-73
2021/01/07 17:34:02;;;;;;;;;24.00;19.33;;;;;;;;5046747;28;9775;-76
2021/01/07 17:36:29;;;;;;;;;24.00;19.00;;;;;;;;5053197;28;8916;-72
2021/01/07 17:38:55;;;;;;;;;20.00;18.00;;;;;;;;5050033;28;9030;-72
2021/01/07 17:41:24;;;;;;;;;17.00;17.00;;;;;;;;5057274;28;8854;-71
2021/01/07 17:43:50;;;;;;;;;20.33;18.00;;;;;;;;5056421;28;8829;-72
2021/01/07 17:46:16;;;;;;;;;18.33;16.00;;;;;;;;5054094;28;8942;-69
2021/01/07 17:48:42;;;;;;;;;19.67;16.00;;;;;;;;5054018;28;8855;-69
2021/01/07 17:51:08;;;;;;;;;21.00;20.00;;;;;;;;5053325;28;8981;-72
2021/01/07 17:53:45;;;;;;;;;19.67;19.67;;;;;;;;5049445;28;8882;-72
2021/01/07 17:56:14;;;;;;;;;21.67;18.33;;;;;;;;5047629;28;8830;-74
2021/01/07 17:58:40;;;;;;;;;17.33;17.33;;;;;;;;5045383;28;8837;-74
2021/01/07 18:01:06;;;;;;;;;33.33;25.00;;;;;;;;5047565;28;8993;-74
2021/01/07 18:03:32;;;;;;;;;29.67;26.33;;;;;;;;5046025;28;8845;-73
2021/01/07 18:06:00;;;;;;;;;29.00;26.67;;;;;;;;5047923;28;8899;-71
2021/01/07 18:08:26;;;;;;;;;27.67;24.33;;;;;;;;5047479;28;8865;-72
2021/01/07 18:10:53;;;;;;;;;28.00;27.00;;;;;;;;5048838;28;9066;-70
2021/01/07 18:13:19;;;;;;;;;31.67;26.00;;;;;;;;5047732;28;8877;-70
2021/01/07 18:15:44;;;;;;;;;32.67;32.33;;;;;;;;5051117;28;8937;-72
2021/01/07 18:18:10;;;;;;;;;29.67;26.33;;;;;;;;5049241;28;8881;-73
2021/01/07 18:20:36;;;;;;;;;29.67;28.67;;;;;;;;5051627;28;9552;-74
2021/01/07 18:23:02;;;;;;;;;27.67;23.67;;;;;;;;5057220;28;8858;-77
2021/01/07 18:25:28;;;;;;;;;29.00;24.00;;;;;;;;5060088;28;8854;-85
2021/01/07 18:27:55;;;;;;;;;29.67;26.67;;;;;;;;5020816;28;10507;-74
2021/01/07 18:30:22;;;;;;;;;28.67;25.67;;;;;;;;5043348;28;8968;-77
2021/01/07 18:32:48;;;;;;;;;18.67;17.33;;;;;;;;5043255;28;8873;-79
2021/01/07 18:35:15;;;;;;;;;26.00;26.00;;;;;;;;5041353;28;8865;-75
2021/01/07 18:37:41;;;;;;;;;34.67;28.67;;;;;;;;5041188;28;8881;-75
2021/01/07 18:40:07;;;;;;;;;38.00;29.33;;;;;;;;5044156;28;9010;-82
2021/01/07 18:42:34;;;;;;;;;40.67;34.33;;;;;;;;5042562;28;8988;-78
2021/01/07 18:45:01;;;;;;;;;36.00;30.33;;;;;;;;5038971;28;8980;-76
2021/01/07 18:47:27;;;;;;;;;27.33;25.33;;;;;;;;5039264;28;8853;-75
2021/01/07 18:49:53;;;;;;;;;29.00;28.00;;;;;;;;5040613;28;8972;-76
2021/01/07 18:52:19;;;;;;;;;32.00;26.67;;;;;;;;5040087;28;8903;-75
2021/01/07 18:54:45;;;;;;;;;34.00;28.67;;;;;;;;5038936;28;8864;-75
2021/01/07 18:57:11;;;;;;;;;35.33;28.00;;;;;;;;5045655;28;8993;-73
2021/01/07 18:59:37;;;;;;;;;34.33;33.00;;;;;;;;5039408;28;8912;-72
2021/01/07 19:02:06;;;;;;;;;33.67;33.67;;;;;;;;5040765;28;8864;-71
2021/01/07 19:04:32;;;;;;;;;40.00;33.33;;;;;;;;5038374;28;8853;-74
2021/01/07 19:06:58;;;;;;;;;42.33;37.67;;;;;;;;5043767;28;8837;-76
2021/01/07 19:09:24;;;;;;;;;43.33;37.00;;;;;;;;5040530;28;8853;-80
2021/01/07 19:11:50;;;;;;;;;44.67;38.00;;;;;;;;5042371;28;8952;-68
2021/01/07 19:14:16;;;;;;;;;34.67;34.00;;;;;;;;5040260;28;8838;-82
2021/01/07 19:16:42;;;;;;;;;47.67;40.33;;;;;;;;5042369;28;8849;-75
2021/01/07 19:19:09;;;;;;;;;47.67;36.67;;;;;;;;5038995;28;8885;-77
2021/01/07 19:21:35;;;;;;;;;46.00;39.67;;;;;;;;5042922;28;8837;-78
2021/01/07 19:24:01;;;;;;;;;50.33;40.67;;;;;;;;5042464;28;8842;-75
2021/01/07 19:26:26;;;;;;;;;45.67;40.67;;;;;;;;5043259;28;9454;-75
2021/01/07 19:28:52;;;;;;;;;44.00;38.33;;;;;;;;5041207;28;8849;-74
2021/01/07 19:31:18;;;;;;;;;37.67;35.67;;;;;;;;5041771;28;9593;-75
2021/01/07 19:33:44;;;;;;;;;39.00;37.33;;;;;;;;5043289;28;8857;-78
2021/01/07 19:36:11;;;;;;;;;34.33;32.33;;;;;;;;5040659;28;8846;-77
2021/01/07 19:38:37;;;;;;;;;44.67;39.00;;;;;;;;5044102;28;8979;-78
2021/01/07 19:41:03;;;;;;;;;48.00;39.67;;;;;;;;5044262;28;8960;-79
2021/01/07 19:43:29;;;;;;;;;45.67;41.00;;;;;;;;5040901;28;8964;-76
2021/01/07 19:45:55;;;;;;;;;54.25;44.75;;;;;;;;5042528;28;8849;-76
2021/01/07 19:48:21;;;;;;;;;56.00;46.00;;;;;;;;5042256;28;8841;-74
2021/01/07 19:50:47;;;;;;;;;50.50;44.75;;;;;;;;5044282;28;8853;-74
2021/01/07 19:53:14;;;;;;;;;50.00;41.67;;;;;;;;5039169;28;8837;-74
2021/01/07 19:55:40;;;;;;;;;58.00;44.33;;;;;;;;5041464;28;8829;-75
2021/01/07 19:58:06;;;;;;;;;50.00;43.00;;;;;;;;5041886;28;8865;-72
2021/01/07 20:00:32;;;;;;;;;39.67;31.67;;;;;;;;5038137;28;8968;-75